Terminal Aerodrome Forecast
Issued by NWS Oklahoma City, OK

Home | Current Version | Previous Version | Text Only | Print | Product List | Glossary On
Versions: 1 2 3 4 5 6 7 8 9 10 11 12 13 14 15 16 17 18 19 20 21 22 23
293
FTUS44 KOUN 081120
TAFOUN
TAF
KOUN 081120Z 0812/0912 32013G22KT P6SM SKC
     FM081600 33024G33KT P6SM SKC
     FM081800 33030G40KT P6SM SKC
     FM082200 33023G30KT P6SM SCT250
     FM090100 33013KT P6SM SCT250=

USA.gov is the U.S. government's official web portal to all federal, state and local government web resources and services.